Time;durP1;ratioP1;P1;durP2;ratioP2;P2;SDS_P1;SDS_P2;PMS_P1;PMS_P2;Temp;Humidity;BMP_temperature;BMP_pressure;BME280_temperature;BME280_humidity;BME280_pressure;Samples;Min_cycle;Max_cycle;Signal;HPM_P1;HPM_P2
2022/01/05 00:00:21;;;;;;;;;10.00;9.00;;;;;21.63;52.24;98568.17;112960;1243;17677;-68
2022/01/05 00:03:05;;;;;;;;;9.67;8.67;;;;;21.63;51.97;98574.17;112926;1242;19093;-67
2022/01/05 00:05:31;;;;;;;;;9.00;9.00;;;;;21.63;52.07;98571.52;112870;1242;20138;-66
2022/01/05 00:07:57;;;;;;;;;10.50;10.00;;;;;21.63;52.05;98574.95;112776;1242;17732;-66
2022/01/05 00:10:22;;;;;;;;;8.50;8.50;;;;;21.63;52.15;98576.96;112682;1242;19443;-68
2022/01/05 00:12:48;;;;;;;;;6.50;6.50;;;;;21.64;52.17;98577.55;112749;1242;22304;-66
2022/01/05 00:15:14;;;;;;;;;12.50;10.50;;;;;21.64;52.12;98574.64;112899;1242;19274;-67
2022/01/05 00:17:40;;;;;;;;;10.00;9.00;;;;;21.64;52.05;98575.15;112961;1242;18252;-67
2022/01/05 00:20:06;;;;;;;;;7.50;7.50;;;;;21.64;52.12;98570.17;112924;1242;19043;-68
2022/01/05 00:22:32;;;;;;;;;9.00;9.00;;;;;21.63;52.00;98566.48;112879;1242;20524;-65
2022/01/05 00:24:57;;;;;;;;;9.50;9.00;;;;;21.63;52.14;98571.02;112923;1242;18506;-64
2022/01/05 00:27:23;;;;;;;;;6.50;6.00;;;;;21.63;51.96;98575.49;112889;1242;18068;-66
2022/01/05 00:29:49;;;;;;;;;10.00;7.50;;;;;21.63;52.05;98585.36;112934;1242;22072;-66
2022/01/05 00:32:15;;;;;;;;;6.00;6.00;;;;;21.63;52.04;98588.02;112932;1242;18570;-67
2022/01/05 00:34:41;;;;;;;;;7.00;7.00;;;;;21.64;52.18;98590.89;112908;1242;18474;-65
2022/01/05 00:37:07;;;;;;;;;10.00;9.00;;;;;21.62;52.07;98598.71;112974;1242;22328;-67
2022/01/05 00:39:33;;;;;;;;;7.00;7.00;;;;;21.64;51.96;98614.16;112933;1242;18436;-66
2022/01/05 00:41:58;;;;;;;;;9.50;6.50;;;;;21.63;52.06;98622.05;112907;1242;18330;-67
2022/01/05 00:44:24;;;;;;;;;8.00;7.50;;;;;21.63;52.06;98628.10;112931;1242;18219;-65
2022/01/05 00:46:50;;;;;;;;;9.50;9.00;;;;;21.62;51.94;98628.95;112925;1242;21732;-66
2022/01/05 00:49:16;;;;;;;;;9.00;7.50;;;;;21.62;52.22;98632.34;112905;1242;18126;-66
2022/01/05 00:51:42;;;;;;;;;7.00;7.00;;;;;21.63;52.24;98636.65;112910;1242;18136;-67
2022/01/05 00:54:08;;;;;;;;;6.50;6.00;;;;;21.64;51.87;98643.98;112894;1242;18420;-64
2022/01/05 00:56:34;;;;;;;;;7.00;7.00;;;;;21.63;52.09;98647.08;112944;1242;19145;-64
2022/01/05 00:58:59;;;;;;;;;7.50;5.50;;;;;21.63;51.94;98650.66;112896;1242;22872;-65
2022/01/05 01:01:25;;;;;;;;;8.50;6.50;;;;;21.63;52.03;98653.23;112863;1243;21181;-67
2022/01/05 01:03:51;;;;;;;;;7.00;6.00;;;;;21.62;52.18;98664.17;112868;1242;18097;-66
2022/01/05 01:06:17;;;;;;;;;7.00;6.50;;;;;21.62;52.09;98664.89;112942;1242;17707;-67
2022/01/05 01:08:43;;;;;;;;;6.00;6.00;;;;;21.62;52.03;98663.73;112986;1242;19265;-66
2022/01/05 01:11:09;;;;;;;;;6.50;6.00;;;;;21.63;52.09;98666.14;112831;1242;18788;-68
2022/01/05 01:13:35;;;;;;;;;6.00;6.00;;;;;21.63;52.09;98668.98;112903;1242;21944;-68
2022/01/05 01:16:01;;;;;;;;;5.00;5.00;;;;;21.63;52.10;98674.27;113001;1243;21033;-67
2022/01/05 01:18:27;;;;;;;;;7.50;7.00;;;;;21.63;52.05;98670.03;112981;1242;21350;-67
2022/01/05 01:20:53;;;;;;;;;6.00;6.00;;;;;21.64;52.12;98670.48;112950;1242;20007;-65
2022/01/05 01:23:21;;;;;;;;;9.00;6.00;;;;;21.63;52.19;98674.72;112906;1242;18399;-66
2022/01/05 01:25:47;;;;;;;;;8.67;7.00;;;;;21.62;51.94;98675.13;112878;1242;20459;-68
2022/01/05 01:28:13;;;;;;;;;6.00;6.00;;;;;21.62;52.18;98671.85;112937;1242;17705;-65
2022/01/05 01:30:38;;;;;;;;;6.00;6.00;;;;;21.63;51.97;98676.13;112933;1243;19060;-66
2022/01/05 01:33:04;;;;;;;;;5.50;5.50;;;;;21.63;52.13;98671.71;112898;1242;18200;-67
2022/01/05 01:35:30;;;;;;;;;6.00;6.00;;;;;21.63;52.02;98679.17;112966;1242;20509;-67
2022/01/05 01:37:56;;;;;;;;;5.00;5.00;;;;;21.63;51.94;98680.02;112948;1242;18747;-66
2022/01/05 01:40:22;;;;;;;;;5.00;5.00;;;;;21.62;52.20;98675.80;112840;1243;18000;-66
2022/01/05 01:42:48;;;;;;;;;5.00;5.00;;;;;21.62;52.05;98669.67;112863;1243;18386;-67
2022/01/05 01:45:14;;;;;;;;;6.00;6.00;;;;;21.60;52.23;98674.83;112883;1242;18686;-65
2022/01/05 01:47:40;;;;;;;;;5.50;5.50;;;;;21.59;52.14;98681.41;112890;1242;19766;-67
2022/01/05 01:50:06;;;;;;;;;6.33;6.00;;;;;21.58;52.29;98691.08;112904;1242;20529;-68
2022/01/05 01:52:32;;;;;;;;;5.00;5.00;;;;;21.59;52.23;98701.29;112999;1242;18566;-66
2022/01/05 01:54:58;;;;;;;;;6.00;6.00;;;;;21.58;52.04;98700.85;112939;1242;19125;-67
2022/01/05 01:57:23;;;;;;;;;6.00;6.00;;;;;21.58;52.11;98705.11;112909;1242;17604;-67
2022/01/05 01:59:50;;;;;;;;;5.00;5.00;;;;;21.58;52.19;98712.58;112895;1242;22210;-64
2022/01/05 02:02:16;;;;;;;;;5.00;5.00;;;;;21.56;52.14;98705.48;112904;1242;19155;-67
2022/01/05 02:04:43;;;;;;;;;5.00;5.00;;;;;21.58;52.21;98713.09;112861;1242;18178;-67
2022/01/05 02:07:09;;;;;;;;;6.00;5.00;;;;;21.57;52.05;98719.42;112878;1242;19384;-67
2022/01/05 02:09:34;;;;;;;;;6.50;6.00;;;;;21.57;52.14;98725.52;112880;1242;18825;-66
2022/01/05 02:12:00;;;;;;;;;5.00;5.00;;;;;21.58;52.13;98727.22;112982;1242;17802;-66
2022/01/05 02:14:26;;;;;;;;;6.00;5.50;;;;;21.59;52.26;98736.78;112924;1242;21564;-66
2022/01/05 02:16:52;;;;;;;;;6.00;6.00;;;;;21.59;52.02;98746.50;112941;1242;18567;-66
2022/01/05 02:19:18;;;;;;;;;5.00;5.00;;;;;21.60;52.03;98761.88;112995;1242;17694;-66
2022/01/05 02:21:44;;;;;;;;;5.00;5.00;;;;;21.59;52.10;98770.86;112975;1242;22273;-66
2022/01/05 02:24:10;;;;;;;;;6.00;5.00;;;;;21.59;51.91;98772.71;112916;1242;19646;-67
2022/01/05 02:26:35;;;;;;;;;5.00;5.00;;;;;21.59;52.07;98777.24;112919;1242;21280;-66
2022/01/05 02:29:01;;;;;;;;;5.00;5.00;;;;;21.59;52.07;98778.17;112919;1242;18635;-65
2022/01/05 02:31:27;;;;;;;;;6.00;5.00;;;;;21.59;51.94;98788.91;112895;1242;17990;-66
2022/01/05 02:33:53;;;;;;;;;5.50;5.50;;;;;21.59;52.05;98792.13;112912;1242;17729;-68
2022/01/05 02:36:20;;;;;;;;;6.00;5.00;;;;;21.59;51.93;98800.31;112966;1242;18444;-66
2022/01/05 02:38:46;;;;;;;;;5.00;5.00;;;;;21.60;51.92;98807.73;112939;1243;20595;-66
2022/01/05 02:41:12;;;;;;;;;5.00;5.00;;;;;21.58;51.91;98807.14;112968;1242;17876;-68
2022/01/05 02:43:38;;;;;;;;;6.00;5.00;;;;;21.59;51.98;98810.21;112972;1242;18741;-67
2022/01/05 02:46:04;;;;;;;;;6.00;5.00;;;;;21.59;51.88;98817.64;112933;1242;18635;-65
2022/01/05 02:48:32;;;;;;;;;6.50;6.00;;;;;21.58;52.00;98823.70;112918;1242;17725;-68
2022/01/05 02:50:58;;;;;;;;;5.00;5.00;;;;;21.58;52.02;98829.52;112889;1242;20441;-68
2022/01/05 02:53:24;;;;;;;;;5.00;5.00;;;;;21.57;52.13;98829.46;112947;1242;18149;-67
2022/01/05 02:55:50;;;;;;;;;5.00;5.00;;;;;21.56;52.03;98822.06;112983;1242;21779;-67
2022/01/05 02:58:15;;;;;;;;;5.00;5.00;;;;;21.56;52.06;98821.67;112962;1242;19002;-67
2022/01/05 03:00:41;;;;;;;;;5.00;5.00;;;;;21.56;51.95;98820.97;112945;1242;21583;-67
2022/01/05 03:03:07;;;;;;;;;6.00;6.00;;;;;21.55;51.98;98819.42;112917;1242;18498;-66
2022/01/05 03:05:33;;;;;;;;;5.00;3.00;;;;;21.55;51.78;98817.04;113017;1242;18424;-68
2022/01/05 03:07:59;;;;;;;;;5.00;3.00;;;;;21.56;51.82;98821.73;112969;1242;20123;-66
2022/01/05 03:10:25;;;;;;;;;6.00;5.00;;;;;21.56;51.93;98814.23;112915;1242;17680;-70
2022/01/05 03:12:51;;;;;;;;;6.00;5.00;;;;;21.55;51.79;98818.13;112921;1242;18585;-67
2022/01/05 03:15:16;;;;;;;;;4.00;4.00;;;;;21.57;52.07;98811.95;112924;1242;18006;-67
2022/01/05 03:17:42;;;;;;;;;6.00;6.00;;;;;21.56;51.93;98807.17;112961;1242;20384;-66
2022/01/05 03:20:08;;;;;;;;;3.00;3.00;;;;;21.56;51.78;98808.55;112976;1243;18449;-66
2022/01/05 03:22:34;;;;;;;;;3.00;3.00;;;;;21.56;51.75;98806.25;112952;1242;18035;-67
2022/01/05 03:25:00;;;;;;;;;3.00;3.00;;;;;21.54;51.78;98800.27;112942;1242;19152;-66
2022/01/05 03:27:26;;;;;;;;;5.00;5.00;;;;;21.56;51.93;98800.20;112985;1242;18622;-67
2022/01/05 03:29:51;;;;;;;;;3.00;3.00;;;;;21.56;51.70;98800.30;112977;1243;17946;-68
2022/01/05 03:32:17;;;;;;;;;3.50;3.00;;;;;21.55;51.88;98800.14;112925;1242;19355;-66
2022/01/05 03:34:45;;;;;;;;;6.00;4.67;;;;;21.56;51.88;98802.39;112952;1242;18946;-67
2022/01/05 03:37:11;;;;;;;;;3.33;3.33;;;;;21.56;51.91;98803.09;112954;1242;20482;-68
2022/01/05 03:39:36;;;;;;;;;3.00;3.00;;;;;21.56;51.73;98808.77;112931;1242;18366;-66
2022/01/05 03:42:02;;;;;;;;;3.00;3.00;;;;;21.56;51.66;98810.90;112848;1242;19575;-65
2022/01/05 03:44:28;;;;;;;;;5.00;3.00;;;;;21.55;51.78;98812.02;112924;1242;17998;-67
2022/01/05 03:46:55;;;;;;;;;2.50;2.50;;;;;21.54;51.69;98815.05;112847;1242;17844;-66
2022/01/05 03:49:21;;;;;;;;;5.00;4.00;;;;;21.53;51.77;98813.55;112966;1242;20010;-66
2022/01/05 03:51:47;;;;;;;;;4.50;4.50;;;;;21.52;51.78;98818.84;112966;1242;20055;-67
2022/01/05 03:54:13;;;;;;;;;3.00;3.00;;;;;21.55;51.60;98831.47;112935;1242;18304;-65
2022/01/05 03:56:39;;;;;;;;;4.00;2.00;;;;;21.56;51.63;98837.36;112936;1242;18567;-66
2022/01/05 03:59:04;;;;;;;;;3.00;3.00;;;;;21.55;51.86;98836.76;112944;1242;19134;-66
2022/01/05 04:01:30;;;;;;;;;3.00;3.00;;;;;21.54;51.76;98841.20;112928;1242;17789;-66
2022/01/05 04:03:56;;;;;;;;;3.00;3.00;;;;;21.54;51.64;98851.83;112940;1242;21118;-66
2022/01/05 04:06:22;;;;;;;;;3.00;3.00;;;;;21.54;51.59;98862.69;112962;1242;18004;-65
2022/01/05 04:08:48;;;;;;;;;3.00;3.00;;;;;21.54;51.80;98864.06;112948;1242;17670;-66
2022/01/05 04:11:14;;;;;;;;;6.00;5.00;;;;;21.53;51.75;98856.45;112939;1243;19301;-66
2022/01/05 04:13:40;;;;;;;;;4.50;3.00;;;;;21.54;51.81;98850.23;112875;1242;18657;-66
2022/01/05 04:16:06;;;;;;;;;3.00;3.00;;;;;21.55;51.57;98843.89;112930;1242;18437;-67
2022/01/05 04:18:32;;;;;;;;;4.00;4.00;;;;;21.55;51.75;98837.84;112843;1242;19135;-64
2022/01/05 04:20:57;;;;;;;;;5.50;4.00;;;;;21.54;51.71;98836.27;112832;1242;18853;-67
2022/01/05 04:23:23;;;;;;;;;3.00;3.00;;;;;21.50;51.61;98828.77;112902;1242;18487;-67
2022/01/05 04:25:49;;;;;;;;;3.00;3.00;;;;;21.54;51.80;98831.66;112981;1242;18456;-67
2022/01/05 04:28:15;;;;;;;;;5.00;4.00;;;;;21.54;51.75;98828.71;112960;1242;22173;-67
2022/01/05 04:30:41;;;;;;;;;2.00;2.00;;;;;21.53;51.64;98822.05;112979;1242;20549;-67
2022/01/05 04:33:07;;;;;;;;;3.33;3.33;;;;;21.53;51.76;98817.95;113004;1242;18773;-67
2022/01/05 04:35:33;;;;;;;;;3.00;3.00;;;;;21.52;51.59;98811.55;112940;1242;18820;-67
2022/01/05 04:37:59;;;;;;;;;4.00;4.00;;;;;21.53;51.58;98813.38;112968;1242;17937;-66
2022/01/05 04:40:26;;;;;;;;;3.33;3.00;;;;;21.54;51.69;98814.98;112962;1242;18708;-67
2022/01/05 04:42:52;;;;;;;;;2.50;2.00;;;;;21.53;51.68;98809.23;112905;1242;18796;-67
2022/01/05 04:45:18;;;;;;;;;4.00;4.00;;;;;21.51;51.68;98802.80;112932;1242;18570;-65
2022/01/05 04:47:44;;;;;;;;;4.00;4.00;;;;;21.52;51.57;98802.70;112970;1242;18688;-65
2022/01/05 04:50:14;;;;;;;;;3.00;3.00;;;;;21.51;51.44;98803.84;112994;1242;19251;-68
2022/01/05 04:52:40;;;;;;;;;4.00;3.50;;;;;21.52;51.51;98800.36;112902;1242;18885;-68
2022/01/05 04:55:06;;;;;;;;;3.00;3.00;;;;;21.52;51.70;98804.17;112943;1242;18638;-67
2022/01/05 04:57:32;;;;;;;;;3.00;3.00;;;;;21.51;51.43;98811.47;112972;1242;18224;-67
2022/01/05 04:59:58;;;;;;;;;5.00;3.00;;;;;21.51;51.66;98811.46;112952;1243;18352;-67
2022/01/05 05:02:24;;;;;;;;;4.00;3.00;;;;;21.52;51.41;98818.64;112941;1242;18654;-66
2022/01/05 05:04:50;;;;;;;;;5.67;4.33;;;;;21.52;51.34;98818.47;112875;1242;18321;-66
2022/01/05 05:07:16;;;;;;;;;3.00;3.00;;;;;21.52;51.57;98814.70;112893;1242;18059;-65
2022/01/05 05:09:42;;;;;;;;;3.00;3.00;;;;;21.51;51.42;98810.20;112888;1242;18320;-67
2022/01/05 05:12:08;;;;;;;;;2.00;2.00;;;;;21.52;51.41;98810.08;112959;1242;21712;-68
2022/01/05 05:14:34;;;;;;;;;3.00;3.00;;;;;21.52;51.37;98815.37;112998;1242;17697;-65
2022/01/05 05:16:59;;;;;;;;;3.00;2.00;;;;;21.53;51.42;98819.30;112939;1242;18576;-67
2022/01/05 05:19:25;;;;;;;;;3.00;3.00;;;;;21.52;51.55;98821.95;112973;1242;18046;-66
2022/01/05 05:21:51;;;;;;;;;2.50;2.50;;;;;21.51;51.57;98825.47;112903;1242;20897;-66
2022/01/05 05:24:17;;;;;;;;;4.00;4.00;;;;;21.57;51.70;98828.55;112944;1242;18560;-64
2022/01/05 05:26:43;;;;;;;;;4.00;4.00;;;;;21.65;51.60;98829.13;112867;1242;18040;-65
2022/01/05 05:29:09;;;;;;;;;3.00;3.00;;;;;21.68;51.71;98829.42;112886;1242;20509;-66
2022/01/05 05:31:35;;;;;;;;;5.00;5.00;;;;;21.65;52.04;98830.55;112932;1242;18451;-67
2022/01/05 05:34:00;;;;;;;;;3.00;3.00;;;;;21.63;52.12;98829.98;112956;1242;18402;-70
2022/01/05 05:36:26;;;;;;;;;2.00;2.00;;;;;21.62;52.11;98831.55;112977;1242;17733;-66
2022/01/05 05:38:52;;;;;;;;;3.50;3.00;;;;;21.62;52.25;98833.07;112918;1242;21413;-66
2022/01/05 05:41:18;;;;;;;;;3.50;3.50;;;;;21.60;52.27;98831.73;112883;1242;19256;-66
2022/01/05 05:43:45;;;;;;;;;3.67;2.00;;;;;21.60;52.17;98832.71;112890;1242;18069;-66
2022/01/05 05:46:10;;;;;;;;;2.00;2.00;;;;;21.60;52.16;98831.29;112860;1242;22170;-66
2022/01/05 05:48:36;;;;;;;;;5.00;3.00;;;;;21.60;52.21;98824.97;112867;1242;18306;-66
2022/01/05 05:51:02;;;;;;;;;5.00;5.00;;;;;21.60;52.28;98828.02;112913;1242;18356;-67
2022/01/05 05:53:28;;;;;;;;;4.50;3.00;;;;;21.60;52.31;98828.35;112945;1242;20041;-67
2022/01/05 05:55:54;;;;;;;;;2.00;2.00;;;;;21.56;52.27;98826.77;112879;1243;18972;-68
2022/01/05 05:58:20;;;;;;;;;6.00;4.50;;;;;21.58;52.22;98827.80;112848;1243;17656;-66
2022/01/05 06:00:46;;;;;;;;;3.00;3.00;;;;;21.58;52.42;98830.64;112868;1243;18827;-65
2022/01/05 06:03:12;;;;;;;;;3.00;3.00;;;;;21.58;52.20;98832.10;112872;1242;19522;-66
2022/01/05 06:05:38;;;;;;;;;2.50;2.50;;;;;21.57;52.30;98833.27;112882;1242;18071;-65
2022/01/05 06:08:03;;;;;;;;;4.00;3.00;;;;;21.57;52.32;98830.64;112852;1242;18482;-67
2022/01/05 06:10:29;;;;;;;;;3.00;3.00;;;;;21.57;52.31;98832.57;112696;1243;20138;-65
2022/01/05 06:12:55;;;;;;;;;2.00;2.00;;;;;21.58;52.13;98838.64;112923;1242;17827;-65
2022/01/05 06:15:21;;;;;;;;;4.00;4.00;;;;;21.58;52.07;98833.23;112917;1242;22351;-67
2022/01/05 06:17:47;;;;;;;;;4.00;4.00;;;;;21.57;52.23;98831.95;112881;1242;18148;-67
2022/01/05 06:20:13;;;;;;;;;2.00;2.00;;;;;21.57;52.08;98831.69;112859;1242;21997;-64
2022/01/05 06:22:39;;;;;;;;;3.00;3.00;;;;;21.55;52.29;98830.38;112920;1242;19038;-67
2022/01/05 06:25:05;;;;;;;;;2.67;2.67;;;;;21.55;52.35;98833.01;113015;1242;18318;-65
2022/01/05 06:27:31;;;;;;;;;6.00;4.00;;;;;21.55;52.22;98827.31;112952;1242;19525;-67
2022/01/05 06:29:57;;;;;;;;;3.00;3.00;;;;;21.58;52.19;98831.18;112982;1242;18557;-70
2022/01/05 06:32:23;;;;;;;;;3.00;3.00;;;;;21.63;52.35;98828.23;112974;1242;17986;-67
2022/01/05 06:34:48;;;;;;;;;3.00;3.00;;;;;21.64;52.32;98833.11;112881;1241;17838;-66
2022/01/05 06:37:16;;;;;;;;;3.00;3.00;;;;;21.67;52.36;98835.02;112939;1242;20650;-66
2022/01/05 06:39:42;;;;;;;;;5.00;4.67;;;;;21.64;52.58;98833.41;112903;1242;18542;-66
2022/01/05 06:42:08;;;;;;;;;4.50;4.50;;;;;21.67;52.61;98837.41;112884;1242;17725;-66
2022/01/05 06:44:34;;;;;;;;;4.50;4.50;;;;;21.73;52.65;98836.99;112903;1242;20348;-63
2022/01/05 06:46:59;;;;;;;;;7.00;5.50;;;;;21.73;52.41;98838.30;112938;1242;18801;-67
2022/01/05 06:49:25;;;;;;;;;6.00;5.50;;;;;21.76;52.74;98841.15;112961;1242;17823;-67
2022/01/05 06:51:51;;;;;;;;;6.00;6.00;;;;;21.77;52.97;98843.08;112966;1242;21524;-65
2022/01/05 06:54:17;;;;;;;;;7.00;6.00;;;;;21.80;52.91;98843.95;112967;1242;18045;-66
2022/01/05 06:56:43;;;;;;;;;5.00;5.00;;;;;21.80;53.12;98845.33;112935;1242;18532;-67
2022/01/05 06:59:09;;;;;;;;;6.00;6.00;;;;;21.84;53.62;98844.62;112882;1242;18421;-65
2022/01/05 07:01:35;;;;;;;;;9.00;7.00;;;;;21.83;53.81;98845.64;112900;1243;19158;-66
2022/01/05 07:04:02;;;;;;;;;6.00;5.00;;;;;21.80;54.01;98849.52;112881;1242;17810;-67
2022/01/05 07:06:28;;;;;;;;;6.67;6.67;;;;;21.79;53.83;98852.65;112931;1242;18597;-69
2022/01/05 07:08:53;;;;;;;;;6.50;5.00;;;;;21.82;53.70;98855.42;112906;1242;18014;-67
2022/01/05 07:11:19;;;;;;;;;5.00;3.00;;;;;21.86;53.67;98855.53;112878;1242;22246;-66
2022/01/05 07:13:45;;;;;;;;;3.00;3.00;;;;;21.87;53.41;98853.21;112895;1242;19035;-66
2022/01/05 07:16:11;;;;;;;;;5.50;5.00;;;;;21.87;53.89;98851.02;112871;1243;18012;-68
2022/01/05 07:18:37;;;;;;;;;4.00;4.00;;;;;21.82;54.19;98855.70;112915;1242;17649;-68
2022/01/05 07:21:03;;;;;;;;;7.00;6.00;;;;;21.80;54.01;98855.02;112929;1242;19133;-67
2022/01/05 07:23:29;;;;;;;;;6.00;6.00;;;;;21.82;54.13;98859.86;112927;1242;18006;-66
2022/01/05 07:25:54;;;;;;;;;7.00;6.00;;;;;21.81;53.83;98861.60;112987;1242;17721;-66
2022/01/05 07:28:20;;;;;;;;;9.00;7.00;;;;;21.81;54.13;98863.27;112948;1242;20054;-66
2022/01/05 07:30:46;;;;;;;;;9.00;7.00;;;;;21.77;54.14;98866.65;112951;1242;18687;-66
2022/01/05 07:33:12;;;;;;;;;7.00;7.00;;;;;21.74;54.27;98865.71;112935;1242;18362;-66
2022/01/05 07:35:38;;;;;;;;;6.00;6.00;;;;;21.72;54.47;98872.75;112955;1242;18851;-68
2022/01/05 07:38:04;;;;;;;;;9.00;9.00;;;;;21.71;54.09;98871.46;112946;1242;18669;-67
2022/01/05 07:40:30;;;;;;;;;9.00;7.00;;;;;21.69;54.19;98871.89;112862;1242;17722;-65
2022/01/05 07:42:56;;;;;;;;;10.00;8.00;;;;;21.67;54.33;98875.04;112827;1242;18542;-64
2022/01/05 07:45:22;;;;;;;;;7.00;7.00;;;;;21.67;54.22;98877.45;112851;1242;18584;-68
2022/01/05 07:47:48;;;;;;;;;7.00;6.50;;;;;21.68;54.25;98883.19;112909;1243;22255;-67
2022/01/05 07:50:14;;;;;;;;;10.50;10.50;;;;;21.68;54.12;98884.50;112942;1242;20770;-67
2022/01/05 07:52:40;;;;;;;;;7.00;7.00;;;;;21.66;54.18;98885.32;112904;1242;18545;-67
2022/01/05 07:55:07;;;;;;;;;11.00;10.00;;;;;21.66;54.12;98879.16;112904;1242;22361;-67
2022/01/05 07:57:33;;;;;;;;;16.33;14.67;;;;;21.65;53.97;98876.98;112890;1242;19116;-65
2022/01/05 07:59:59;;;;;;;;;25.50;22.50;;;;;21.63;54.14;98876.38;112681;1243;21432;-66
2022/01/05 08:02:25;;;;;;;;;41.00;34.00;;;;;21.61;54.09;98873.30;112826;1242;18600;-66
2022/01/05 08:04:51;;;;;;;;;53.00;39.67;;;;;21.65;53.90;98875.11;112903;1242;21811;-68
2022/01/05 08:07:17;;;;;;;;;45.67;39.00;;;;;21.65;54.08;98868.27;112964;1242;21135;-66
2022/01/05 08:09:42;;;;;;;;;64.00;50.33;;;;;21.66;54.02;98871.73;112869;1242;18667;-67
2022/01/05 08:12:08;;;;;;;;;68.67;50.67;;;;;21.65;53.89;98871.25;112892;1242;19871;-69
2022/01/05 08:14:34;;;;;;;;;68.00;48.67;;;;;21.69;53.92;98872.91;112885;1242;18357;-65
2022/01/05 08:17:00;;;;;;;;;66.00;51.33;;;;;21.71;53.82;98874.58;112911;1242;21699;-65
2022/01/05 08:19:26;;;;;;;;;64.00;51.33;;;;;21.75;53.90;98880.46;112907;1242;18389;-67
2022/01/05 08:21:52;;;;;;;;;66.33;51.67;;;;;21.75;53.88;98886.62;112969;1242;18832;-66
2022/01/05 08:24:18;;;;;;;;;67.33;51.33;;;;;21.76;53.97;98884.40;112958;1242;18532;-68
2022/01/05 08:26:44;;;;;;;;;64.67;52.33;;;;;21.74;54.21;98885.84;112948;1243;21738;-66
2022/01/05 08:29:10;;;;;;;;;74.67;57.33;;;;;21.68;54.15;98879.34;112957;1242;19065;-66
2022/01/05 08:31:36;;;;;;;;;72.00;55.67;;;;;21.74;54.23;98887.15;112963;1242;20694;-67
2022/01/05 08:34:02;;;;;;;;;77.67;55.00;;;;;21.78;55.09;98896.15;112959;1242;18461;-68
2022/01/05 08:36:27;;;;;;;;;67.67;52.00;;;;;21.82;56.25;98895.89;112970;1242;18506;-67
2022/01/05 08:38:53;;;;;;;;;70.33;53.00;;;;;21.85;56.98;98891.01;112985;1242;20315;-66
2022/01/05 08:41:19;;;;;;;;;61.33;47.67;;;;;21.88;57.44;98896.34;112898;1242;18430;-67
2022/01/05 08:43:45;;;;;;;;;67.00;50.67;;;;;21.89;57.77;98893.27;112953;1242;19690;-68
2022/01/05 08:46:11;;;;;;;;;66.33;50.00;;;;;21.94;57.98;98893.70;112961;1242;17962;-67
2022/01/05 08:48:39;;;;;;;;;72.33;53.00;;;;;21.96;57.88;98896.08;112922;1242;20149;-67
2022/01/05 08:51:05;;;;;;;;;63.00;50.00;;;;;21.95;57.67;98898.66;112879;1242;20402;-68
2022/01/05 08:53:30;;;;;;;;;67.00;50.67;;;;;21.92;57.34;98902.06;112905;1243;21446;-66
2022/01/05 08:55:56;;;;;;;;;70.67;52.00;;;;;21.92;57.06;98902.38;112810;1242;18549;-67
2022/01/05 08:58:22;;;;;;;;;64.33;46.00;;;;;21.89;56.54;98903.00;112855;1242;19081;-67
2022/01/05 09:00:48;;;;;;;;;63.33;46.00;;;;;21.90;56.93;98896.77;112898;1242;18854;-66
2022/01/05 09:03:14;;;;;;;;;58.00;46.00;;;;;21.91;57.02;98892.75;112858;1242;21513;-65
2022/01/05 09:05:40;;;;;;;;;58.00;46.00;;;;;21.90;56.83;98891.16;112876;1242;18373;-67
2022/01/05 09:08:06;;;;;;;;;59.00;46.33;;;;;21.89;56.47;98892.64;112860;1242;17931;-70
2022/01/05 09:10:32;;;;;;;;;58.50;46.00;;;;;21.90;55.93;98895.07;112862;1242;18452;-66
2022/01/05 09:12:57;;;;;;;;;63.00;49.00;;;;;21.88;56.33;98891.09;112914;1242;20253;-64
2022/01/05 09:15:23;;;;;;;;;61.33;42.67;;;;;21.87;56.00;98898.91;112894;1242;18088;-65
2022/01/05 09:17:49;;;;;;;;;59.33;44.67;;;;;21.84;56.06;98900.33;112873;1242;20393;-66
2022/01/05 09:20:15;;;;;;;;;58.67;45.33;;;;;21.83;55.94;98902.65;112941;1242;18356;-66
2022/01/05 09:22:41;;;;;;;;;59.33;43.33;;;;;21.81;56.19;98908.24;112887;1242;17946;-66
2022/01/05 09:25:07;;;;;;;;;61.67;44.00;;;;;21.79;55.99;98908.08;112949;1242;19876;-66
2022/01/05 09:27:33;;;;;;;;;48.67;41.67;;;;;21.77;55.83;98905.02;112967;1242;18435;-66
2022/01/05 09:29:59;;;;;;;;;53.67;42.33;;;;;21.77;55.65;98910.20;112958;1242;18096;-66
2022/01/05 09:32:24;;;;;;;;;53.00;42.33;;;;;21.78;55.45;98917.36;112945;1242;22154;-67
2022/01/05 09:34:50;;;;;;;;;53.67;42.67;;;;;21.76;55.53;98913.85;112914;1242;18732;-68
2022/01/05 09:37:22;;;;;;;;;55.33;43.00;;;;;21.79;55.56;98918.43;112896;1242;18400;-65
2022/01/05 09:42:32;;;;;;;;;51.33;39.00;;;;;21.84;55.47;98905.16;112931;1242;19178;-65
2022/01/05 09:44:58;;;;;;;;;52.33;39.67;;;;;21.86;55.35;98906.52;112904;1242;18107;-67
2022/01/05 09:47:25;;;;;;;;;46.33;36.00;;;;;21.86;55.70;98911.64;112956;1243;18402;-66
2022/01/05 09:49:52;;;;;;;;;43.33;37.67;;;;;21.84;55.81;98911.74;112883;1242;18767;-66
2022/01/05 09:52:18;;;;;;;;;47.50;40.00;;;;;21.83;55.41;98911.34;112890;1242;20787;-66
2022/01/05 09:54:44;;;;;;;;;52.00;36.50;;;;;21.87;55.41;98900.46;112809;1242;18389;-67
2022/01/05 09:57:10;;;;;;;;;45.00;38.50;;;;;21.90;56.46;98896.23;112819;1243;18339;-64
2022/01/05 09:59:36;;;;;;;;;51.00;40.00;;;;;21.93;57.40;98900.02;112802;1242;20992;-66
2022/01/05 10:02:02;;;;;;;;;43.00;38.50;;;;;21.95;59.15;98903.18;112826;1242;18986;-67
2022/01/05 10:04:28;;;;;;;;;39.00;33.33;;;;;22.01;59.83;98912.66;113409;1242;18755;-68
2022/01/05 10:06:54;;;;;;;;;48.33;38.33;;;;;22.01;61.68;98914.39;112789;1242;18078;-66
2022/01/05 10:09:20;;;;;;;;;45.67;36.00;;;;;22.05;62.67;98908.13;112910;1242;22680;-68
2022/01/05 10:11:46;;;;;;;;;48.00;34.00;;;;;22.08;63.22;98910.16;112863;1242;18685;-69
2022/01/05 10:14:13;;;;;;;;;53.00;39.00;;;;;22.04;63.15;98905.15;112957;1242;22001;-68
2022/01/05 10:16:39;;;;;;;;;59.00;44.33;;;;;22.01;61.68;98908.48;112782;1242;18648;-67
2022/01/05 10:19:06;;;;;;;;;40.33;35.00;;;;;21.94;60.19;98906.43;112877;1242;18593;-67
2022/01/05 10:21:31;;;;;;;;;34.67;31.00;;;;;21.86;59.09;98904.46;112912;1242;20319;-68
2022/01/05 10:23:57;;;;;;;;;50.33;42.00;;;;;21.80;60.23;98897.28;112933;1242;18442;-69
2022/01/05 10:26:24;;;;;;;;;40.00;34.00;;;;;21.78;62.02;98892.89;112764;1242;19059;-68
2022/01/05 10:28:49;;;;;;;;;31.00;27.00;;;;;21.77;60.05;98891.27;112778;1242;18553;-68
2022/01/05 10:31:15;;;;;;;;;34.00;27.00;;;;;21.80;58.75;98888.41;112729;1242;18478;-68
2022/01/05 10:33:41;;;;;;;;;36.50;27.50;;;;;21.84;58.24;98891.81;112881;1242;18342;-67
2022/01/05 10:36:07;;;;;;;;;28.50;25.00;;;;;21.89;57.71;98891.39;112874;1242;19444;-68
2022/01/05 14:13:55;;;;;;;;;11.67;10.00;;;;;20.51;37.18;98944.88;112757;1242;19421;-70
2022/01/05 14:16:25;;;;;;;;;15.00;12.00;;;;;20.60;37.71;98946.13;112896;1242;19591;-73
2022/01/05 14:18:51;;;;;;;;;8.00;8.00;;;;;20.71;37.46;98941.48;112991;1242;19642;-72
2022/01/05 14:21:18;;;;;;;;;9.00;8.00;;;;;20.79;37.60;98939.54;112849;1242;18965;-73
2022/01/05 14:23:44;;;;;;;;;9.67;8.67;;;;;20.88;37.84;98946.10;112891;1242;23031;-71
2022/01/05 14:26:10;;;;;;;;;9.00;8.00;;;;;20.97;38.15;98952.73;112701;1244;18706;-70
2022/01/05 14:28:36;;;;;;;;;9.00;8.00;;;;;21.04;38.65;98954.69;112701;1244;18590;-70
2022/01/05 14:31:02;;;;;;;;;10.00;9.50;;;;;21.08;38.90;98954.73;112924;1242;18498;-70
2022/01/05 14:33:28;;;;;;;;;8.00;8.00;;;;;21.11;39.31;98958.45;112935;1242;22257;-72
2022/01/05 14:35:54;;;;;;;;;8.50;8.00;;;;;21.15;39.63;98954.60;112926;1243;19139;-73
2022/01/05 14:38:20;;;;;;;;;10.00;9.00;;;;;21.16;39.82;98957.84;113039;1242;21779;-73
2022/01/05 14:40:45;;;;;;;;;16.50;14.00;;;;;21.18;39.86;98965.30;113008;1242;18443;-73
2022/01/05 14:43:11;;;;;;;;;10.00;9.00;;;;;21.17;39.77;98972.48;112952;1242;21090;-73
2022/01/05 14:45:38;;;;;;;;;11.00;10.00;;;;;21.17;40.19;98973.90;113019;1242;17897;-72
2022/01/05 14:48:04;;;;;;;;;8.00;8.00;;;;;21.19;40.78;98972.34;112962;1242;23075;-71
2022/01/05 14:50:30;;;;;;;;;12.00;9.00;;;;;21.22;41.48;98977.89;112943;1242;18660;-72
2022/01/05 14:53:00;;;;;;;;;13.00;12.50;;;;;21.26;41.95;98979.62;112984;1242;19031;-72